Pertusola — IBER — position and weather

sailwx.info

Track history (hours):
 
Tides and Currents Weather Stations Pressure Air Temp Water Temp Dewpoint Dewpoint Depression Visibility Wind Speed Wind Dir Waves Ship Positions

Pertusola

Last reported at 2015-Jul-01 16:33 UTC. Time now 2015-Jul-03 10:37 UTC.
Position N 35°50' W 000°16'.

Length 145 m; draft 6.9 m.

Type: Ship (hazmat cat A). MMSI: 247399000.

Date/timePositionNaut miles runAvg speedWind from/ knotsBaromVisibWave heightAir tempDewpointWater temp
2015-Jul-01 16:33N 35°50' W 000°16'2 2.4
2015-Jul-01 15:32N 35°52' W 000°14'1 1.2
2015-Jul-01 14:26N 35°52' W 000°15'1 0.9
2015-Jul-01 13:28N 35°53' W 000°15'1 1.2
2015-Jul-01 12:31N 35°54' W 000°15'3 3.6
2015-Jul-01 11:33N 35°58' W 000°15'4 0.9
2015-Jul-01 07:33N 36°02' W 000°15'0 0.3
2015-Jul-01 06:15N 36°01' W 000°15'1 2.0
2015-Jul-01 05:31N 36°01' W 000°14'2 0.2
2015-Jun-30 20:06N 36°00' W 000°16'913.6
2015-Jun-30 19:27N 36°04' W 000°26'1314.7
2015-Jun-30 18:33N 36°10' W 000°41'1514.6
2015-Jun-30 17:33N 36°10' W 000°59'1414.1
2015-Jun-30 16:33N 36°10' W 001°16'1414.2
2015-Jun-30 15:34N 36°10' W 001°34'1514.2
2015-Jun-30 14:29N 36°10' W 001°53'1713.7
2015-Jun-30 13:15N 36°10' W 002°14'1013.5
2015-Jun-30 12:30N 36°10' W 002°26'1313.7
2015-Jun-30 11:32N 36°10' W 002°42'12315.4
2015-Jun-30 03:33N 36°01' W 005°14'2216.3
2015-Jun-30 02:14N 35°55' W 005°40'1116.4
2015-Jun-30 01:33N 35°55' W 005°53'3014.8
2015-Jun-29 23:33N 35°55' W 006°30'1414.2
2015-Jun-29 22:32N 35°57' W 006°48'1414.3
2015-Jun-29 21:33N 36°01' W 007°05'1414.3
2015-Jun-29 20:33N 36°04' W 007°22'1514.7
2015-Jun-29 19:33N 36°07' W 007°39'1815.0
2015-Jun-29 18:20N 36°12' W 008°01'1214.9
2015-Jun-29 17:33N 36°16' W 008°15'1614.8
2015-Jun-29 16:29N 36°20' W 008°34'1415.0
2015-Jun-29 15:33N 36°23' W 008°51'1514.7
2015-Jun-29 14:32N 36°27' W 009°09'1814.1
2015-Jun-29 13:17N 36°36' W 009°28'1114.8
2015-Jun-29 12:33N 36°44' W 009°37'1514.6
2015-Jun-29 11:33N 36°58' W 009°42'1414.5
2015-Jun-29 10:33N 37°12' W 009°46'1514.6
2015-Jun-29 09:33N 37°26' W 009°50'1514.8
2015-Jun-29 08:33N 37°41' W 009°56'1515.0
2015-Jun-29 07:33N 37°55' W 009°59'1515.0
2015-Jun-29 06:33N 38°10' W 010°03'1514.9
2015-Jun-29 05:33N 38°24' W 010°07'1514.7
2015-Jun-29 04:33N 38°39' W 010°11'1414.4
2015-Jun-29 03:34N 38°53' W 010°12'1515.0
2015-Jun-29 02:34N 39°08' W 010°12'1514.8
2015-Jun-29 01:33N 39°23' W 010°12'1514.8
2015-Jun-29 00:33N 39°38' W 010°12'1514.8
2015-Jun-28 23:33N 39°53' W 010°12'1515.0
2015-Jun-28 22:33N 40°08' W 010°12'1514.9
2015-Jun-28 21:32N 40°23' W 010°12'1515.0
2015-Jun-28 20:33N 40°38' W 010°12'1515.3
2015-Jun-28 19:33N 40°53' W 010°12'1515.1
2015-Jun-28 18:32N 41°08' W 010°12'1515.0
2015-Jun-28 17:32N 41°23' W 010°13'1515.4
2015-Jun-28 16:34N 41°38' W 010°12'1614.8
2015-Jun-28 15:30N 41°54' W 010°12'11214.0
2015-Jun-28 07:32N 43°43' W 009°42'1814.6
2015-Jun-28 06:16N 43°49' W 009°17'37413.9
2015-Jun-27 03:22N 45°21' W 000°48'1514.1
2015-Jun-27 02:17N 45°07' W 000°41'911.4
2015-Jun-27 01:31N 45°00' W 000°33'0 0.3
2015-Jun-27 00:33N 44°60' W 000°33'0 0.0
2015-Jun-26 23:33N 44°60' W 000°33'0 0.0
2015-Jun-26 19:24N 44°60' W 000°33'0 0.0
2015-Jun-26 08:15N 44°60' W 000°33'0 0.0
2015-Jun-26 07:33N 44°60' W 000°33'0 0.0
2015-Jun-26 06:33N 44°60' W 000°33'0 0.0
2015-Jun-26 05:33N 44°60' W 000°33'0 0.0
2015-Jun-26 04:33N 44°60' W 000°33'0 0.0
2015-Jun-26 03:33N 44°60' W 000°33'0 0.0
2015-Jun-26 02:33N 44°60' W 000°33'0 0.0
2015-Jun-26 01:33N 44°60' W 000°33'0 0.0
2015-Jun-26 00:33N 44°60' W 000°33'0 0.0
2015-Jun-25 23:30N 44°60' W 000°33'0 0.0
2015-Jun-25 22:33N 44°60' W 000°33'0 0.0
2015-Jun-25 21:33N 44°60' W 000°33'46 3.3
2015-Jun-25 07:30N 45°39' W 001°09'1111.5
2015-Jun-25 06:30N 45°36' W 001°24'2 1.9
2015-Jun-25 05:32N 45°36' W 001°27'0 0.0
2015-Jun-25 04:32N 45°36' W 001°27'0 0.1
2015-Jun-25 03:32N 45°36' W 001°27'0 0.0
2015-Jun-25 02:29N 45°36' W 001°27'0 0.0
2015-Jun-25 00:08N 45°36' W 001°27'0 0.0
2015-Jun-24 23:32N 45°36' W 001°27'0 0.0
2015-Jun-24 22:23N 45°36' W 001°27'0 0.0
2015-Jun-24 21:26N 45°36' W 001°27'0 0.0
2015-Jun-24 20:32N 45°36' W 001°27'0 0.0
2015-Jun-24 19:29N 45°36' W 001°27'0 0.0
2015-Jun-24 18:32N 45°36' W 001°27'0 0.0
2015-Jun-24 09:32N 45°36' W 001°27'0 0.0
2015-Jun-24 08:14N 45°36' W 001°27'0 0.0
2015-Jun-24 07:32N 45°36' W 001°27'0 0.0
2015-Jun-24 06:32N 45°36' W 001°27'0 0.1
2015-Jun-24 05:32N 45°36' W 001°27'0 0.0
2015-Jun-24 04:11N 45°36' W 001°27'0 0.1
2015-Jun-24 03:32N 45°36' W 001°27'0 0.1
2015-Jun-24 02:20N 45°36' W 001°27'1 1.1
2015-Jun-24 01:32N 45°36' W 001°28'1010.3
2015-Jun-24 00:33N 45°31' W 001°41'3812.6
2015-Jun-23 21:31N 45°20' W 002°33'45411.1
2015-Jun-22 04:33N 40°04' W 009°57'1313.2
2015-Jun-22 03:32N 39°51' W 009°57'2612.9
2015-Jun-22 01:30N 39°25' W 009°57'1212.8
2015-Jun-22 00:33N 39°12' W 009°57'1212.4
2015-Jun-21 23:33N 39°00' W 009°57'1312.7
2015-Jun-21 22:33N 38°47' W 009°56'1312.7
2015-Jun-21 21:33N 38°35' W 009°55'1312.6
2015-Jun-21 20:33N 38°23' W 009°51'1312.6
2015-Jun-21 19:33N 38°10' W 009°47'2512.4
2015-Jun-21 17:33N 37°46' W 009°40'1312.9
2015-Jun-21 16:33N 37°34' W 009°36'  
Track history (hours):
 
Tides and Currents Weather Stations Pressure Air Temp Water Temp Dewpoint Dewpoint Depression Visibility Wind Speed Wind Dir Waves Ship Positions

Pertusola

Last reported at 2015-Jul-01 16:33 UTC. Time now 2015-Jul-03 10:37 UTC.
Position N 35°50' W 000°16'.

Length 145 m; draft 6.9 m.

Type: Ship (hazmat cat A). MMSI: 247399000.

Date/timePositionNaut miles runAvg speedWind from/ knotsBaromVisibWave heightAir tempDewpointWater temp
2015-Jul-01 16:33N 35°50' W 000°16'2 2.4
2015-Jul-01 15:32N 35°52' W 000°14'1 1.2
2015-Jul-01 14:26N 35°52' W 000°15'1 0.9
2015-Jul-01 13:28N 35°53' W 000°15'1 1.2
2015-Jul-01 12:31N 35°54' W 000°15'3 3.6
2015-Jul-01 11:33N 35°58' W 000°15'4 0.9
2015-Jul-01 07:33N 36°02' W 000°15'0 0.3
2015-Jul-01 06:15N 36°01' W 000°15'1 2.0
2015-Jul-01 05:31N 36°01' W 000°14'2 0.2
2015-Jun-30 20:06N 36°00' W 000°16'913.6
2015-Jun-30 19:27N 36°04' W 000°26'1314.7
2015-Jun-30 18:33N 36°10' W 000°41'1514.6
2015-Jun-30 17:33N 36°10' W 000°59'1414.1
2015-Jun-30 16:33N 36°10' W 001°16'1414.2
2015-Jun-30 15:34N 36°10' W 001°34'1514.2
2015-Jun-30 14:29N 36°10' W 001°53'1713.7
2015-Jun-30 13:15N 36°10' W 002°14'1013.5
2015-Jun-30 12:30N 36°10' W 002°26'1313.7
2015-Jun-30 11:32N 36°10' W 002°42'12315.4
2015-Jun-30 03:33N 36°01' W 005°14'2216.3
2015-Jun-30 02:14N 35°55' W 005°40'1116.4
2015-Jun-30 01:33N 35°55' W 005°53'3014.8
2015-Jun-29 23:33N 35°55' W 006°30'1414.2
2015-Jun-29 22:32N 35°57' W 006°48'1414.3
2015-Jun-29 21:33N 36°01' W 007°05'1414.3
2015-Jun-29 20:33N 36°04' W 007°22'1514.7
2015-Jun-29 19:33N 36°07' W 007°39'1815.0
2015-Jun-29 18:20N 36°12' W 008°01'1214.9
2015-Jun-29 17:33N 36°16' W 008°15'1614.8
2015-Jun-29 16:29N 36°20' W 008°34'1415.0
2015-Jun-29 15:33N 36°23' W 008°51'1514.7
2015-Jun-29 14:32N 36°27' W 009°09'1814.1
2015-Jun-29 13:17N 36°36' W 009°28'1114.8
2015-Jun-29 12:33N 36°44' W 009°37'1514.6
2015-Jun-29 11:33N 36°58' W 009°42'1414.5
2015-Jun-29 10:33N 37°12' W 009°46'1514.6
2015-Jun-29 09:33N 37°26' W 009°50'1514.8
2015-Jun-29 08:33N 37°41' W 009°56'1515.0
2015-Jun-29 07:33N 37°55' W 009°59'1515.0
2015-Jun-29 06:33N 38°10' W 010°03'1514.9
2015-Jun-29 05:33N 38°24' W 010°07'1514.7
2015-Jun-29 04:33N 38°39' W 010°11'1414.4
2015-Jun-29 03:34N 38°53' W 010°12'1515.0
2015-Jun-29 02:34N 39°08' W 010°12'1514.8
2015-Jun-29 01:33N 39°23' W 010°12'1514.8
2015-Jun-29 00:33N 39°38' W 010°12'1514.8
2015-Jun-28 23:33N 39°53' W 010°12'1515.0
2015-Jun-28 22:33N 40°08' W 010°12'1514.9
2015-Jun-28 21:32N 40°23' W 010°12'1515.0
2015-Jun-28 20:33N 40°38' W 010°12'1515.3
2015-Jun-28 19:33N 40°53' W 010°12'1515.1
2015-Jun-28 18:32N 41°08' W 010°12'1515.0
2015-Jun-28 17:32N 41°23' W 010°13'1515.4
2015-Jun-28 16:34N 41°38' W 010°12'1614.8
2015-Jun-28 15:30N 41°54' W 010°12'11214.0
2015-Jun-28 07:32N 43°43' W 009°42'1814.6
2015-Jun-28 06:16N 43°49' W 009°17'37413.9
2015-Jun-27 03:22N 45°21' W 000°48'1514.1
2015-Jun-27 02:17N 45°07' W 000°41'911.4
2015-Jun-27 01:31N 45°00' W 000°33'0 0.3
2015-Jun-27 00:33N 44°60' W 000°33'0 0.0
2015-Jun-26 23:33N 44°60' W 000°33'0 0.0
2015-Jun-26 19:24N 44°60' W 000°33'0 0.0
2015-Jun-26 08:15N 44°60' W 000°33'0 0.0
2015-Jun-26 07:33N 44°60' W 000°33'0 0.0
2015-Jun-26 06:33N 44°60' W 000°33'0 0.0
2015-Jun-26 05:33N 44°60' W 000°33'0 0.0
2015-Jun-26 04:33N 44°60' W 000°33'0 0.0
2015-Jun-26 03:33N 44°60' W 000°33'0 0.0
2015-Jun-26 02:33N 44°60' W 000°33'0 0.0
2015-Jun-26 01:33N 44°60' W 000°33'0 0.0
2015-Jun-26 00:33N 44°60' W 000°33'0 0.0
2015-Jun-25 23:30N 44°60' W 000°33'0 0.0
2015-Jun-25 22:33N 44°60' W 000°33'0 0.0
2015-Jun-25 21:33N 44°60' W 000°33'46 3.3
2015-Jun-25 07:30N 45°39' W 001°09'1111.5
2015-Jun-25 06:30N 45°36' W 001°24'2 1.9
2015-Jun-25 05:32N 45°36' W 001°27'0 0.0
2015-Jun-25 04:32N 45°36' W 001°27'0 0.1
2015-Jun-25 03:32N 45°36' W 001°27'0 0.0
2015-Jun-25 02:29N 45°36' W 001°27'0 0.0
2015-Jun-25 00:08N 45°36' W 001°27'0 0.0
2015-Jun-24 23:32N 45°36' W 001°27'0 0.0
2015-Jun-24 22:23N 45°36' W 001°27'0 0.0
2015-Jun-24 21:26N 45°36' W 001°27'0 0.0
2015-Jun-24 20:32N 45°36' W 001°27'0 0.0
2015-Jun-24 19:29N 45°36' W 001°27'0 0.0
2015-Jun-24 18:32N 45°36' W 001°27'0 0.0
2015-Jun-24 09:32N 45°36' W 001°27'0 0.0
2015-Jun-24 08:14N 45°36' W 001°27'0 0.0
2015-Jun-24 07:32N 45°36' W 001°27'0 0.0
2015-Jun-24 06:32N 45°36' W 001°27'0 0.1
2015-Jun-24 05:32N 45°36' W 001°27'0 0.0
2015-Jun-24 04:11N 45°36' W 001°27'0 0.1
2015-Jun-24 03:32N 45°36' W 001°27'0 0.1
2015-Jun-24 02:20N 45°36' W 001°27'1 1.1
2015-Jun-24 01:32N 45°36' W 001°28'1010.3
2015-Jun-24 00:33N 45°31' W 001°41'3812.6
2015-Jun-23 21:31N 45°20' W 002°33'45411.1
2015-Jun-22 04:33N 40°04' W 009°57'1313.2
2015-Jun-22 03:32N 39°51' W 009°57'2612.9
2015-Jun-22 01:30N 39°25' W 009°57'1212.8
2015-Jun-22 00:33N 39°12' W 009°57'1212.4
2015-Jun-21 23:33N 39°00' W 009°57'1312.7
2015-Jun-21 22:33N 38°47' W 009°56'1312.7
2015-Jun-21 21:33N 38°35' W 009°55'1312.6
2015-Jun-21 20:33N 38°23' W 009°51'1312.6
2015-Jun-21 19:33N 38°10' W 009°47'2512.4
2015-Jun-21 17:33N 37°46' W 009°40'1312.9
2015-Jun-21 16:33N 37°34' W 009°36'  

Dump ship's entire track history